createdAt,value
2017-11-23T00:01:33.301Z,55.10
2017-11-23T00:04:00.971Z,54.90
2017-11-23T00:06:28.531Z,54.60
2017-11-23T00:08:56.114Z,54.10
2017-11-23T00:11:23.618Z,53.30
2017-11-23T00:13:51.155Z,53.00
2017-11-23T00:16:18.651Z,52.50
2017-11-23T00:18:46.221Z,52.00
2017-11-23T00:21:13.740Z,52.60
2017-11-23T00:23:41.268Z,52.50
2017-11-23T00:26:08.759Z,52.70
2017-11-23T00:28:36.343Z,52.70
2017-11-23T00:31:04.605Z,52.90
2017-11-23T00:33:33.092Z,52.50
2017-11-23T00:36:01.389Z,52.80
2017-11-23T00:38:28.917Z,52.80
2017-11-23T00:40:57.190Z,52.70
2017-11-23T00:43:24.703Z,52.70
2017-11-23T00:45:52.224Z,52.90
2017-11-23T00:48:20.526Z,52.90
2017-11-23T00:50:48.088Z,52.90
2017-11-23T00:53:15.611Z,52.90
2017-11-23T00:55:43.925Z,53.00
2017-11-23T00:58:11.468Z,53.00
2017-11-23T01:00:39.738Z,53.20
2017-11-23T01:03:08.044Z,53.40
2017-11-23T01:05:35.597Z,53.40
2017-11-23T01:08:03.120Z,53.10
2017-11-23T01:10:30.640Z,53.40
2017-11-23T01:12:58.132Z,53.30
2017-11-23T01:15:25.603Z,53.50
2017-11-23T01:17:53.255Z,53.40
2017-11-23T01:20:20.749Z,53.50
2017-11-23T01:22:48.256Z,53.70
2017-11-23T01:25:15.761Z,54.10
2017-11-23T01:27:43.988Z,53.50
2017-11-23T01:30:11.479Z,53.40
2017-11-23T01:32:40.573Z,53.60
2017-11-23T01:35:08.061Z,53.50
2017-11-23T01:37:35.547Z,53.30
2017-11-23T01:40:03.056Z,53.70
2017-11-23T01:42:31.348Z,54.30
2017-11-23T01:44:59.608Z,54.60
2017-11-23T01:47:27.887Z,54.60
2017-11-23T01:49:55.402Z,54.50
2017-11-23T01:52:22.896Z,54.80
2017-11-23T01:54:50.382Z,55.10
2017-11-23T01:57:17.873Z,55.40
2017-11-23T01:59:45.359Z,55.80
2017-11-23T02:02:12.844Z,56.10
2017-11-23T02:04:40.311Z,56.00
2017-11-23T02:07:07.809Z,56.10
2017-11-23T02:09:35.286Z,55.80
2017-11-23T02:12:02.771Z,55.50
2017-11-23T02:14:30.254Z,55.10
2017-11-23T02:16:57.756Z,55.10
2017-11-23T02:19:25.243Z,55.00
2017-11-23T02:21:53.562Z,54.60
2017-11-23T02:24:21.153Z,55.20
2017-11-23T02:26:48.651Z,54.70
2017-11-23T02:29:16.921Z,56.00
2017-11-23T02:31:44.387Z,56.00
2017-11-23T02:34:12.632Z,56.20
2017-11-23T02:36:40.121Z,56.20
2017-11-23T02:39:08.377Z,56.40
2017-11-23T02:41:35.858Z,56.40
2017-11-23T02:44:04.118Z,56.80
2017-11-23T02:46:31.664Z,56.80
2017-11-23T02:48:59.221Z,56.90
2017-11-23T02:51:26.762Z,56.90
2017-11-23T02:53:54.236Z,56.70
2017-11-23T02:56:21.744Z,56.80
2017-11-23T02:58:49.989Z,56.80
2017-11-23T03:01:17.496Z,56.70
2017-11-23T03:03:44.968Z,56.70
2017-11-23T03:06:12.456Z,56.60
2017-11-23T03:08:39.911Z,56.80
2017-11-23T03:11:07.399Z,56.60
2017-11-23T03:13:35.654Z,56.50
2017-11-23T03:16:03.172Z,56.50
2017-11-23T03:18:30.673Z,56.70
2017-11-23T03:20:58.175Z,56.50
2017-11-23T03:23:25.663Z,56.40
2017-11-23T03:25:53.250Z,56.40
2017-11-23T03:28:20.799Z,56.30
2017-11-23T03:30:48.350Z,56.10
2017-11-23T03:33:15.867Z,56.00
2017-11-23T03:35:44.123Z,56.30
2017-11-23T03:38:11.633Z,56.30
2017-11-23T03:40:41.339Z,56.50
2017-11-23T03:43:08.905Z,56.50
2017-11-23T03:45:36.469Z,56.70
2017-11-23T03:48:03.972Z,56.90
2017-11-23T03:50:31.489Z,56.90
2017-11-23T03:52:58.975Z,57.20
2017-11-23T03:55:26.463Z,57.00
2017-11-23T03:57:54.735Z,56.50
2017-11-23T04:00:22.267Z,56.50
2017-11-23T04:02:49.784Z,56.60
2017-11-23T04:05:17.289Z,56.60
2017-11-23T04:07:44.774Z,56.80
2017-11-23T04:10:13.026Z,56.90
2017-11-23T04:12:41.595Z,57.60
2017-11-23T04:15:09.066Z,56.90
2017-11-23T04:17:36.553Z,57.00
2017-11-23T04:20:04.831Z,57.20
2017-11-23T04:22:33.515Z,57.10
2017-11-23T04:25:01.039Z,57.10
2017-11-23T04:27:28.570Z,57.40
2017-11-23T04:29:56.085Z,57.30
2017-11-23T04:32:23.893Z,57.50
2017-11-23T04:34:51.429Z,57.70
2017-11-23T04:37:19.834Z,58.00
2017-11-23T04:39:47.312Z,58.00
2017-11-23T04:42:14.789Z,58.20
2017-11-23T04:44:42.273Z,58.40
2017-11-23T04:47:09.740Z,58.60
2017-11-23T04:49:38.025Z,58.90
2017-11-23T04:52:06.268Z,59.20
2017-11-23T04:54:33.758Z,59.20
2017-11-23T04:57:01.991Z,59.50
2017-11-23T04:59:29.505Z,59.40
2017-11-23T05:01:57.800Z,59.80
2017-11-23T05:04:25.268Z,59.90
2017-11-23T05:06:52.743Z,60.10
2017-11-23T05:09:20.240Z,60.40
2017-11-23T05:11:47.768Z,60.20
2017-11-23T05:14:15.278Z,60.70
2017-11-23T05:16:42.791Z,60.60
2017-11-23T05:19:10.270Z,60.40
2017-11-23T05:21:37.774Z,60.60
2017-11-23T05:24:05.240Z,60.60
2017-11-23T05:26:32.772Z,60.60
2017-11-23T05:29:00.399Z,60.70
2017-11-23T05:31:27.889Z,61.00
2017-11-23T05:33:56.122Z,60.80
2017-11-23T05:36:23.612Z,60.80
2017-11-23T05:38:51.993Z,60.90
2017-11-23T05:41:19.664Z,60.90
2017-11-23T05:43:47.184Z,60.70
2017-11-23T05:46:14.648Z,60.60
2017-11-23T05:48:42.147Z,60.40
2017-11-23T05:51:10.385Z,60.60
2017-11-23T05:53:37.887Z,60.40
2017-11-23T05:56:05.378Z,60.60
2017-11-23T05:58:32.897Z,60.60
2017-11-23T06:01:01.140Z,60.60
2017-11-23T06:03:28.624Z,60.60
2017-11-23T06:05:56.169Z,60.90
2017-11-23T06:08:23.648Z,61.00
2017-11-23T06:10:51.894Z,61.00
2017-11-23T06:13:19.371Z,61.00
2017-11-23T06:15:46.873Z,61.90
2017-11-23T06:18:14.333Z,61.80
2017-11-23T06:20:41.837Z,61.00
2017-11-23T06:23:09.320Z,61.10
2017-11-23T06:25:37.570Z,61.70
2017-11-23T06:28:05.079Z,61.70
2017-11-23T06:30:32.555Z,62.00
2017-11-23T06:33:00.074Z,62.10
2017-11-23T06:35:28.335Z,61.90
2017-11-23T06:37:55.826Z,61.90
2017-11-23T06:40:23.300Z,61.90
2017-11-23T06:42:50.797Z,62.10
2017-11-23T06:45:18.283Z,62.20
2017-11-23T06:47:46.537Z,62.50
2017-11-23T06:50:14.017Z,62.50
2017-11-23T06:52:42.268Z,62.10
2017-11-23T06:55:10.558Z,61.40
2017-11-23T06:57:38.060Z,61.40
2017-11-23T07:00:05.568Z,61.50
2017-11-23T07:02:33.186Z,61.70
2017-11-23T07:05:00.764Z,61.50
2017-11-23T07:07:28.228Z,61.60
2017-11-23T07:09:55.711Z,61.60
2017-11-23T07:12:23.269Z,61.70
2017-11-23T07:14:50.757Z,61.80
2017-11-23T07:17:18.303Z,61.90
2017-11-23T07:19:46.564Z,62.30
2017-11-23T07:22:14.843Z,62.50
2017-11-23T07:24:42.330Z,62.50
2017-11-23T07:27:09.855Z,62.60
2017-11-23T07:29:37.335Z,62.60
2017-11-23T07:32:04.853Z,62.40
2017-11-23T07:34:32.336Z,62.00
2017-11-23T07:36:59.821Z,62.00
2017-11-23T07:39:28.073Z,61.50
2017-11-23T07:41:55.548Z,61.50
2017-11-23T07:44:23.801Z,59.90
2017-11-23T07:46:51.337Z,59.90
2017-11-23T07:49:18.827Z,59.80
2017-11-23T07:51:46.328Z,60.50
2017-11-23T07:54:13.808Z,60.90
2017-11-23T07:56:41.289Z,61.00
2017-11-23T07:59:08.761Z,60.80
2017-11-23T08:01:36.246Z,59.80
2017-11-23T08:04:04.499Z,57.20
2017-11-23T08:06:32.753Z,56.30
2017-11-23T08:09:00.327Z,56.30
2017-11-23T08:11:27.825Z,55.90
2017-11-23T08:13:55.307Z,55.30
2017-11-23T08:16:22.802Z,54.70
2017-11-23T08:18:50.279Z,54.30
2017-11-23T08:21:18.576Z,53.70
2017-11-23T08:23:46.097Z,53.70
2017-11-23T08:26:13.583Z,53.20
2017-11-23T08:28:41.823Z,52.70
2017-11-23T08:31:09.371Z,52.60
2017-11-23T08:33:36.841Z,52.80
2017-11-23T08:36:04.339Z,52.50
2017-11-23T08:38:31.840Z,52.60
2017-11-23T08:40:59.325Z,52.50
2017-11-23T08:43:26.802Z,52.70
2017-11-23T08:45:55.134Z,53.00
2017-11-23T08:48:22.657Z,52.90
2017-11-23T08:50:50.899Z,52.00
2017-11-23T08:53:18.372Z,52.50
2017-11-23T08:55:45.845Z,50.80
2017-11-23T08:58:14.105Z,50.00
2017-11-23T09:00:41.581Z,50.00
2017-11-23T09:03:09.836Z,50.40
2017-11-23T09:05:42.984Z,50.30
2017-11-23T09:08:10.464Z,50.50
2017-11-23T09:10:37.962Z,52.30
2017-11-23T09:13:09.031Z,51.10
2017-11-23T09:15:36.505Z,50.90
2017-11-23T09:18:04.871Z,50.40
2017-11-23T09:20:32.331Z,49.70
2017-11-23T09:22:59.814Z,49.20
2017-11-23T09:25:27.769Z,48.00
2017-11-23T09:27:55.252Z,48.50
2017-11-23T09:30:22.773Z,48.90
2017-11-23T09:32:50.265Z,49.30
2017-11-23T09:35:17.808Z,49.10
2017-11-23T09:37:45.344Z,49.20
2017-11-23T09:40:12.837Z,48.90
2017-11-23T09:42:40.728Z,48.30
2017-11-23T09:45:08.250Z,49.10
2017-11-23T09:47:35.794Z,48.40
2017-11-23T09:50:03.283Z,47.60
2017-11-23T09:52:30.759Z,47.30
2017-11-23T09:54:58.272Z,47.60
2017-11-23T09:57:25.757Z,48.70
2017-11-23T09:59:53.285Z,49.00
2017-11-23T10:02:20.795Z,49.30
2017-11-23T10:04:49.040Z,50.20
2017-11-23T10:07:16.524Z,50.20
2017-11-23T10:09:44.012Z,55.20
2017-11-23T10:12:11.546Z,56.60
2017-11-23T10:14:45.124Z,56.40
2017-11-23T10:17:12.614Z,57.80
2017-11-23T10:19:41.615Z,65.80
2017-11-23T10:22:09.099Z,66.50
2017-11-23T10:24:37.361Z,71.80
2017-11-23T10:27:04.849Z,71.70
2017-11-23T10:29:32.317Z,74.90
2017-11-23T10:31:59.820Z,78.40
2017-11-23T10:34:27.293Z,77.50
2017-11-23T10:36:54.775Z,79.60
2017-11-23T10:39:22.271Z,79.90
2017-11-23T10:41:49.775Z,80.10
2017-11-23T10:44:18.020Z,79.50
2017-11-23T10:46:45.528Z,79.30
2017-11-23T10:49:13.001Z,78.30
2017-11-23T10:51:40.493Z,74.40
2017-11-23T10:54:07.982Z,73.80
2017-11-23T10:56:36.237Z,69.50
2017-11-23T10:59:03.723Z,69.40
2017-11-23T11:01:31.955Z,65.00
2017-11-23T11:03:59.453Z,65.00
2017-11-23T11:06:27.705Z,63.00
2017-11-23T11:08:55.195Z,63.00
2017-11-23T11:11:22.669Z,61.80
2017-11-23T11:13:50.168Z,59.80
2017-11-23T11:16:17.665Z,58.20
2017-11-23T11:18:45.904Z,58.80
2017-11-23T11:21:13.403Z,58.80
2017-11-23T11:23:42.562Z,60.50
2017-11-23T11:26:10.867Z,62.00
2017-11-23T11:28:38.352Z,61.90
2017-11-23T11:31:06.613Z,63.70
2017-11-23T11:33:34.851Z,64.60
2017-11-23T11:36:02.339Z,64.60
2017-11-23T11:38:29.811Z,65.60
2017-11-23T11:40:58.132Z,64.80
2017-11-23T11:43:25.599Z,64.70
2017-11-23T11:45:53.079Z,65.10
2017-11-23T11:48:20.555Z,66.40
2017-11-23T11:50:49.235Z,68.40
2017-11-23T11:53:16.939Z,68.30
2017-11-23T11:55:44.413Z,69.10
2017-11-23T11:58:12.017Z,69.20
2017-11-23T12:00:41.030Z,69.30
2017-11-23T12:03:08.995Z,69.20
2017-11-23T12:05:37.329Z,69.20
2017-11-23T12:08:04.932Z,69.20
2017-11-23T12:10:33.492Z,69.60
2017-11-23T12:13:01.359Z,69.40
2017-11-23T12:15:36.623Z,69.60
2017-11-23T12:18:15.915Z,69.70
2017-11-23T12:20:55.409Z,69.90
2017-11-23T12:23:44.692Z,69.80
2017-11-23T12:26:12.188Z,69.70
2017-11-23T12:28:51.748Z,69.80
2017-11-23T12:31:19.342Z,69.60
2017-11-23T12:33:46.852Z,69.30
2017-11-23T12:36:14.351Z,68.40
2017-11-23T12:38:41.912Z,68.50
2017-11-23T12:41:36.895Z,68.00
2017-11-23T12:44:05.380Z,67.90
2017-11-23T12:46:32.878Z,67.80
2017-11-23T12:49:00.380Z,68.40
2017-11-23T12:51:27.860Z,68.40
2017-11-23T12:53:55.344Z,67.90
2017-11-23T12:56:23.597Z,68.40
2017-11-23T12:58:51.071Z,68.30
2017-11-23T13:01:19.332Z,68.30
2017-11-23T13:03:46.803Z,68.30
2017-11-23T13:06:15.070Z,68.90
2017-11-23T13:08:42.575Z,68.00
2017-11-23T13:11:11.149Z,68.10
2017-11-23T13:13:38.724Z,68.30
2017-11-23T13:16:06.267Z,67.40
2017-11-23T13:18:33.818Z,67.50
2017-11-23T13:21:02.116Z,67.60
2017-11-23T13:23:30.531Z,67.60
2017-11-23T13:25:58.146Z,67.30
2017-11-23T13:28:25.667Z,67.20
2017-11-23T13:30:53.195Z,67.40
2017-11-23T13:33:21.608Z,67.10
2017-11-23T13:35:49.092Z,67.20
2017-11-23T13:38:17.368Z,68.10
2017-11-23T13:40:45.612Z,68.30
2017-11-23T13:43:13.136Z,68.20
2017-11-23T13:45:42.252Z,68.50
2017-11-23T13:48:09.931Z,69.00
2017-11-23T13:50:37.420Z,69.30
2017-11-23T13:53:05.686Z,69.50
2017-11-23T13:55:33.165Z,69.30
2017-11-23T13:58:00.731Z,69.70
2017-11-23T14:00:28.383Z,70.00
2017-11-23T14:02:56.090Z,69.90
2017-11-23T14:05:23.766Z,69.80
2017-11-23T14:07:53.580Z,69.30
2017-11-23T14:10:21.074Z,69.40
2017-11-23T14:12:48.936Z,68.90
2017-11-23T14:15:16.408Z,68.90
2017-11-23T14:17:44.714Z,68.80
2017-11-23T14:20:12.251Z,68.80
2017-11-23T14:22:40.316Z,69.10
2017-11-23T14:25:08.115Z,69.00
2017-11-23T14:27:35.951Z,69.10
2017-11-23T14:30:03.482Z,68.90
2017-11-23T14:32:31.004Z,69.20
2017-11-23T14:34:59.432Z,69.20
2017-11-23T14:37:26.922Z,69.10
2017-11-23T14:39:55.203Z,69.10
2017-11-23T14:42:31.653Z,69.10
2017-11-23T14:44:59.153Z,69.00
2017-11-23T14:47:26.787Z,69.10
2017-11-23T14:49:57.282Z,69.10
2017-11-23T14:52:24.817Z,69.00
2017-11-23T14:54:52.328Z,69.20
2017-11-23T14:57:20.640Z,69.10
2017-11-23T14:59:48.204Z,69.10
2017-11-23T15:02:15.677Z,69.10
2017-11-23T15:04:43.237Z,70.20
2017-11-23T15:07:10.747Z,69.70
2017-11-23T15:09:39.020Z,70.00
2017-11-23T15:12:06.674Z,70.00
2017-11-23T15:14:34.150Z,70.20
2017-11-23T15:17:02.408Z,70.00
2017-11-23T15:19:29.905Z,70.00
2017-11-23T15:21:57.402Z,69.90
2017-11-23T15:24:25.071Z,69.70
2017-11-23T15:26:52.676Z,69.90
2017-11-23T15:29:21.032Z,70.00
2017-11-23T15:31:49.313Z,70.20
2017-11-23T15:34:16.812Z,70.20
2017-11-23T15:36:47.500Z,70.20
2017-11-23T15:39:15.018Z,70.00
2017-11-23T15:41:42.571Z,69.60
2017-11-23T15:44:10.055Z,69.40
2017-11-23T15:46:37.625Z,69.60
2017-11-23T15:49:05.098Z,69.70
2017-11-23T15:51:32.613Z,70.10
2017-11-23T15:54:01.725Z,70.10
2017-11-23T15:56:29.305Z,70.30
2017-11-23T15:58:56.784Z,70.70
2017-11-23T16:01:25.022Z,77.40
2017-11-23T16:03:52.520Z,77.40
2017-11-23T16:06:23.136Z,79.10
2017-11-23T16:08:50.618Z,80.40
2017-11-23T16:11:18.945Z,82.80
2017-11-23T16:13:46.417Z,82.70
2017-11-23T16:16:13.904Z,83.10
2017-11-23T16:18:41.448Z,83.20
2017-11-23T16:21:08.920Z,82.90
2017-11-23T16:23:36.430Z,81.90
2017-11-23T16:26:04.097Z,81.50
2017-11-23T16:28:31.654Z,81.50
2017-11-23T16:30:59.244Z,81.00
2017-11-23T16:33:26.936Z,81.30
2017-11-23T16:35:55.347Z,81.40
2017-11-23T16:38:24.485Z,81.40
2017-11-23T16:40:52.450Z,81.40
2017-11-23T16:43:21.471Z,81.70
2017-11-23T16:49:05.325Z,82.10
2017-11-23T16:51:49.523Z,82.40
2017-11-23T16:54:22.576Z,82.50
2017-11-23T17:00:00.937Z,82.60
2017-11-23T17:02:46.338Z,82.70
2017-11-23T17:05:19.678Z,83.10
2017-11-23T17:07:53.690Z,83.00
2017-11-23T17:10:26.816Z,82.90
2017-11-23T17:13:00.787Z,83.20
2017-11-23T17:15:34.764Z,83.60
2017-11-23T17:21:05.693Z,83.90
2017-11-23T17:23:33.211Z,84.40
2017-11-23T17:26:00.692Z,84.20
2017-11-23T17:28:28.967Z,84.00
2017-11-23T17:30:57.232Z,84.00
2017-11-23T17:33:24.704Z,84.00
2017-11-23T17:35:52.982Z,83.60
2017-11-23T17:38:20.498Z,83.60
2017-11-23T17:40:47.980Z,83.50
2017-11-23T17:43:15.466Z,83.10
2017-11-23T17:45:43.836Z,83.30
2017-11-23T17:48:12.094Z,83.20
2017-11-23T17:50:39.591Z,83.20
2017-11-23T17:53:07.081Z,82.70
2017-11-23T17:55:34.603Z,82.80
2017-11-23T17:58:02.104Z,82.20
2017-11-23T18:00:29.621Z,82.10
2017-11-23T18:02:57.148Z,82.10
2017-11-23T18:05:24.644Z,82.20
2017-11-23T18:07:52.153Z,81.90
2017-11-23T18:10:19.718Z,82.30
2017-11-23T18:12:47.244Z,82.30
2017-11-23T18:15:14.909Z,82.20
2017-11-23T18:17:45.216Z,82.30
2017-11-23T18:20:13.293Z,82.40
2017-11-23T18:22:41.311Z,83.10
2017-11-23T18:25:08.831Z,83.20
2017-11-23T18:27:36.367Z,83.50
2017-11-23T18:30:04.681Z,87.00
2017-11-23T18:32:32.343Z,87.00
2017-11-23T18:34:59.838Z,87.30
2017-11-23T18:37:27.322Z,88.20
2017-11-23T18:39:55.599Z,88.70
2017-11-23T18:42:23.941Z,88.80
2017-11-23T18:44:51.442Z,88.80
2017-11-23T18:47:19.728Z,90.30
2017-11-23T18:49:47.242Z,89.90
2017-11-23T18:52:14.731Z,90.20
2017-11-23T18:54:43.024Z,90.30
2017-11-23T18:57:10.651Z,90.30
2017-11-23T18:59:38.138Z,90.60
2017-11-23T19:02:06.542Z,90.80
2017-11-23T19:04:34.128Z,91.10
2017-11-23T19:07:03.019Z,91.40
2017-11-23T19:09:31.325Z,91.90
2017-11-23T19:11:58.841Z,91.80
2017-11-23T19:14:26.316Z,92.20
2017-11-23T19:16:53.811Z,92.10
2017-11-23T19:19:21.726Z,92.30
2017-11-23T19:21:49.267Z,92.30
2017-11-23T19:24:17.002Z,92.00
2017-11-23T19:26:44.560Z,92.00
2017-11-23T19:29:12.532Z,91.70
2017-11-23T19:31:40.023Z,91.50
2017-11-23T19:34:07.489Z,91.40
2017-11-23T19:36:35.085Z,91.40
2017-11-23T19:39:02.701Z,91.20
2017-11-23T19:41:30.305Z,90.90
2017-11-23T19:43:58.749Z,90.20
2017-11-23T19:46:27.628Z,89.80
2017-11-23T19:48:55.552Z,90.00
2017-11-23T19:51:23.085Z,90.20
2017-11-23T19:53:51.104Z,90.10
2017-11-23T19:56:18.636Z,90.10
2017-11-23T19:58:46.248Z,90.00
2017-11-23T20:01:14.768Z,89.80
2017-11-23T20:03:42.284Z,89.80
2017-11-23T20:06:12.683Z,90.00
2017-11-23T20:08:40.293Z,89.90
2017-11-23T20:11:07.772Z,89.50
2017-11-23T20:13:36.736Z,89.30
2017-11-23T20:16:04.273Z,89.20
2017-11-23T20:18:32.722Z,89.00
2017-11-23T20:21:00.464Z,88.90
2017-11-23T20:23:27.972Z,88.70
2017-11-23T20:25:55.500Z,88.60
2017-11-23T20:28:25.314Z,89.30
2017-11-23T20:30:52.846Z,88.30
2017-11-23T20:33:20.541Z,88.50
2017-11-23T20:35:48.174Z,88.50
2017-11-23T20:38:16.073Z,88.80
2017-11-23T20:40:44.987Z,88.60
2017-11-23T20:43:12.635Z,88.50
2017-11-23T20:45:40.190Z,88.00
2017-11-23T20:48:07.891Z,87.10
2017-11-23T20:50:36.216Z,86.20
2017-11-23T20:53:03.865Z,86.20
2017-11-23T20:55:31.377Z,86.00
2017-11-23T20:57:59.668Z,86.10
2017-11-23T21:00:27.900Z,86.20
2017-11-23T21:02:55.529Z,86.10
2017-11-23T21:05:23.119Z,86.80
2017-11-23T21:07:50.635Z,86.80
2017-11-23T21:10:18.143Z,87.20
2017-11-23T21:12:46.125Z,87.10
2017-11-23T21:15:13.790Z,86.90
2017-11-23T21:17:41.289Z,88.20
2017-11-23T21:20:08.827Z,87.20
2017-11-23T21:22:37.262Z,87.10
2017-11-23T21:25:05.249Z,87.10
2017-11-23T21:27:32.736Z,87.20
2017-11-23T21:30:00.305Z,86.90
2017-11-23T21:32:28.562Z,87.10
2017-11-23T21:34:56.042Z,87.10
2017-11-23T21:37:24.301Z,87.20
2017-11-23T21:39:51.886Z,87.00
2017-11-23T21:42:20.751Z,86.50
2017-11-23T21:44:48.347Z,86.40
2017-11-23T21:47:15.959Z,86.30
2017-11-23T21:49:43.434Z,86.80
2017-11-23T21:52:10.901Z,86.40
2017-11-23T21:54:38.382Z,86.00
2017-11-23T21:57:06.636Z,85.40
2017-11-23T21:59:34.144Z,85.40
2017-11-23T22:02:01.690Z,85.90
2017-11-23T22:04:29.199Z,86.00
2017-11-23T22:06:56.732Z,85.60
2017-11-23T22:09:24.245Z,85.70
2017-11-23T22:11:52.508Z,85.30
2017-11-23T22:14:20.004Z,85.30
2017-11-23T22:16:47.486Z,85.30
2017-11-23T22:19:14.981Z,85.50
2017-11-23T22:21:42.473Z,85.50
2017-11-23T22:24:10.723Z,85.10
2017-11-23T22:26:38.988Z,83.80
2017-11-23T22:29:06.486Z,83.60
2017-11-23T22:31:33.980Z,83.20
2017-11-23T22:34:01.460Z,83.40
2017-11-23T22:36:30.478Z,82.40
2017-11-23T22:38:58.746Z,82.10
2017-11-23T22:41:26.275Z,82.10
2017-11-23T22:43:53.757Z,82.00
2017-11-23T22:46:21.241Z,82.00
2017-11-23T22:48:48.752Z,81.30
2017-11-23T22:51:16.233Z,81.50
2017-11-23T22:53:43.711Z,80.70
2017-11-23T22:56:11.975Z,79.90
2017-11-23T22:58:40.219Z,80.80
2017-11-23T23:01:07.723Z,80.40
2017-11-23T23:03:35.978Z,80.60
2017-11-23T23:06:03.452Z,80.40
2017-11-23T23:08:31.704Z,80.90
2017-11-23T23:10:59.183Z,80.50
2017-11-23T23:13:26.686Z,81.10
2017-11-23T23:15:54.252Z,80.80
2017-11-23T23:18:21.728Z,81.20
2017-11-23T23:20:49.282Z,81.80
2017-11-23T23:23:16.775Z,82.80
2017-11-23T23:25:44.247Z,83.60
2017-11-23T23:28:12.491Z,85.00
2017-11-23T23:30:39.972Z,84.90
2017-11-23T23:33:07.471Z,85.00
2017-11-23T23:35:34.977Z,85.20
2017-11-23T23:38:02.455Z,85.10
2017-11-23T23:40:30.715Z,84.70
2017-11-23T23:42:58.212Z,84.70
2017-11-23T23:45:26.460Z,85.10
2017-11-23T23:47:53.922Z,86.00
2017-11-23T23:50:21.404Z,85.50
2017-11-23T23:52:48.989Z,86.70
2017-11-23T23:55:16.491Z,87.30
2017-11-23T23:57:43.983Z,87.40
